SAS696 LOWW-EKCH
Flight info
| Callsign | SAS696 |
|---|---|
| Flight time | N/A |
| Altitude | 36000 |
| Route | UNGU2C/29 LANUX DCT VLM DCT HDO DCT BAKDO DCT KOSEB T298 MONAK |
| Aircraft | B738/M-SDE2E3FGHIRWXY/LB1 |
Departure
| Time | N/A |
|---|---|
| Airport | Vienna International Airport (LOWW) |
Arrival
| Time | 2026-04-24 21:16 |
|---|---|
| Airport | Copenhagen Kastrup Airport (EKCH) |
| Time | Latitude | Longitude | Altitude | Speed | Heading |
|---|---|---|---|---|---|
| 2026-04-24 20:30 | 51.60903 | 14.08811 | 35075 ft | 419 kts | 340° |
| 2026-04-24 20:30 | 51.63716 | 14.07632 | 35073 ft | 419 kts | 340° |
| 2026-04-24 20:31 | 51.69374 | 14.05257 | 35075 ft | 417 kts | 340° |
| 2026-04-24 20:31 | 51.75026 | 14.02878 | 35076 ft | 417 kts | 340° |
| 2026-04-24 20:32 | 51.80631 | 14.00509 | 35077 ft | 417 kts | 340° |
| 2026-04-24 20:32 | 51.86225 | 13.98139 | 35070 ft | 418 kts | 340° |
| 2026-04-24 20:33 | 51.91862 | 13.95747 | 35075 ft | 420 kts | 340° |
| 2026-04-24 20:33 | 51.97507 | 13.93349 | 35068 ft | 418 kts | 340° |
| 2026-04-24 20:34 | 52.03115 | 13.90961 | 35069 ft | 416 kts | 340° |
| 2026-04-24 20:34 | 52.08729 | 13.88559 | 35065 ft | 418 kts | 340° |
| 2026-04-24 20:35 | 52.14354 | 13.86144 | 35034 ft | 418 kts | 340° |
| 2026-04-24 20:35 | 52.20005 | 13.83680 | 35061 ft | 419 kts | 339° |
| 2026-04-24 20:36 | 52.25528 | 13.80870 | 35064 ft | 418 kts | 337° |
| 2026-04-24 20:36 | 52.31016 | 13.77920 | 35064 ft | 417 kts | 337° |
| 2026-04-24 20:37 | 52.36505 | 13.74996 | 35065 ft | 416 kts | 337° |
| 2026-04-24 20:37 | 52.42041 | 13.72071 | 35065 ft | 417 kts | 337° |
| 2026-04-24 20:38 | 52.47589 | 13.69152 | 35064 ft | 417 kts | 337° |
| 2026-04-24 20:38 | 52.53095 | 13.66258 | 35056 ft | 417 kts | 337° |
| 2026-04-24 20:39 | 52.58631 | 13.63340 | 35053 ft | 416 kts | 337° |
| 2026-04-24 20:39 | 52.64143 | 13.60430 | 35052 ft | 417 kts | 337° |
| 2026-04-24 20:40 | 52.69650 | 13.57513 | 35050 ft | 417 kts | 337° |
| 2026-04-24 20:40 | 52.75222 | 13.54553 | 35049 ft | 418 kts | 337° |
| 2026-04-24 20:41 | 52.80708 | 13.51634 | 35045 ft | 417 kts | 337° |
| 2026-04-24 20:41 | 52.86234 | 13.48686 | 35045 ft | 418 kts | 337° |
| 2026-04-24 20:42 | 52.91717 | 13.45753 | 35045 ft | 417 kts | 337° |
| 2026-04-24 20:42 | 52.97239 | 13.42791 | 35039 ft | 418 kts | 337° |
| 2026-04-24 20:43 | 53.02768 | 13.39815 | 35037 ft | 418 kts | 337° |
| 2026-04-24 20:43 | 53.08315 | 13.36823 | 35034 ft | 417 kts | 337° |
| 2026-04-24 20:44 | 53.13820 | 13.33846 | 35031 ft | 417 kts | 337° |
| 2026-04-24 20:44 | 53.19367 | 13.30835 | 35034 ft | 416 kts | 336° |
| 2026-04-24 20:45 | 53.24842 | 13.27856 | 35029 ft | 418 kts | 337° |
| 2026-04-24 20:45 | 53.30408 | 13.24821 | 35029 ft | 420 kts | 337° |
| 2026-04-24 20:46 | 53.35959 | 13.21784 | 35024 ft | 421 kts | 337° |
| 2026-04-24 20:46 | 53.41488 | 13.18754 | 35024 ft | 420 kts | 337° |
| 2026-04-24 20:47 | 53.47036 | 13.15706 | 35023 ft | 419 kts | 337° |
| 2026-04-24 20:47 | 53.52556 | 13.12663 | 35026 ft | 420 kts | 337° |
| 2026-04-24 20:48 | 53.58096 | 13.09598 | 35023 ft | 421 kts | 337° |
| 2026-04-24 20:48 | 53.63650 | 13.06517 | 35019 ft | 423 kts | 337° |
| 2026-04-24 20:49 | 53.69248 | 13.03403 | 35019 ft | 425 kts | 337° |
| 2026-04-24 20:49 | 53.74606 | 13.00419 | 35015 ft | 423 kts | 338° |
| 2026-04-24 20:50 | 53.80167 | 12.97310 | 35018 ft | 423 kts | 338° |
| 2026-04-24 20:50 | 53.85726 | 12.94195 | 35021 ft | 423 kts | 338° |
| 2026-04-24 20:51 | 53.91346 | 12.91035 | 35019 ft | 424 kts | 338° |
| 2026-04-24 20:51 | 53.96927 | 12.87886 | 34676 ft | 430 kts | 338° |
| 2026-04-24 20:52 | 53.99780 | 12.86274 | 34039 ft | 430 kts | 338° |
| 2026-04-24 20:52 | 54.02555 | 12.84705 | 33382 ft | 428 kts | 338° |
| 2026-04-24 20:52 | 54.05399 | 12.83098 | 32708 ft | 426 kts | 338° |
| 2026-04-24 20:52 | 54.08157 | 12.81537 | 32052 ft | 424 kts | 338° |
| 2026-04-24 20:53 | 54.10990 | 12.79928 | 31379 ft | 425 kts | 338° |
| 2026-04-24 20:53 | 54.13779 | 12.78342 | 30721 ft | 427 kts | 338° |
| 2026-04-24 20:53 | 54.16604 | 12.76730 | 30044 ft | 430 kts | 338° |
| 2026-04-24 20:53 | 54.19414 | 12.75124 | 29369 ft | 431 kts | 338° |
| 2026-04-24 20:54 | 54.22282 | 12.73483 | 28683 ft | 432 kts | 338° |
| 2026-04-24 20:54 | 54.25111 | 12.71863 | 28012 ft | 433 kts | 338° |
| 2026-04-24 20:54 | 54.27960 | 12.70229 | 27338 ft | 436 kts | 339° |
| 2026-04-24 20:54 | 54.30850 | 12.68570 | 26660 ft | 438 kts | 339° |
| 2026-04-24 20:55 | 54.33715 | 12.66923 | 25990 ft | 440 kts | 339° |
| 2026-04-24 20:55 | 54.36608 | 12.65256 | 25321 ft | 441 kts | 339° |
| 2026-04-24 20:55 | 54.39517 | 12.63580 | 24662 ft | 438 kts | 339° |
| 2026-04-24 20:55 | 54.42353 | 12.61947 | 24026 ft | 433 kts | 339° |
| 2026-04-24 20:56 | 54.45190 | 12.60312 | 23396 ft | 429 kts | 339° |
| 2026-04-24 20:56 | 54.47993 | 12.58691 | 22881 ft | 422 kts | 339° |
| 2026-04-24 20:56 | 54.50719 | 12.57114 | 22400 ft | 417 kts | 339° |
| 2026-04-24 20:56 | 54.53458 | 12.55524 | 21903 ft | 414 kts | 339° |
| 2026-04-24 20:57 | 54.56150 | 12.53958 | 21409 ft | 411 kts | 339° |
| 2026-04-24 20:57 | 54.58866 | 12.52377 | 20907 ft | 407 kts | 339° |
| 2026-04-24 20:57 | 54.61520 | 12.50828 | 20415 ft | 405 kts | 339° |
| 2026-04-24 20:57 | 54.64162 | 12.49285 | 19919 ft | 402 kts | 339° |
| 2026-04-24 20:58 | 54.66777 | 12.47755 | 19460 ft | 397 kts | 339° |
| 2026-04-24 20:58 | 54.69376 | 12.46235 | 19193 ft | 394 kts | 339° |
| 2026-04-24 20:58 | 54.71952 | 12.44722 | 18948 ft | 395 kts | 339° |
| 2026-04-24 20:58 | 54.74565 | 12.43187 | 18700 ft | 393 kts | 339° |
| 2026-04-24 20:59 | 54.77135 | 12.41674 | 18451 ft | 391 kts | 339° |
| 2026-04-24 20:59 | 54.79698 | 12.40165 | 18199 ft | 388 kts | 339° |
| 2026-04-24 20:59 | 54.82224 | 12.38677 | 17714 ft | 383 kts | 339° |
| 2026-04-24 20:59 | 54.84712 | 12.37209 | 17003 ft | 380 kts | 339° |
| 2026-04-24 21:00 | 54.87202 | 12.35736 | 16268 ft | 378 kts | 339° |
| 2026-04-24 21:00 | 54.89648 | 12.34301 | 15557 ft | 375 kts | 339° |
| 2026-04-24 21:00 | 54.92196 | 12.33215 | 14824 ft | 375 kts | 348° |
| 2026-04-24 21:00 | 54.94765 | 12.33252 | 14122 ft | 380 kts | 5° |
| 2026-04-24 21:01 | 54.97292 | 12.34733 | 13453 ft | 385 kts | 21° |
| 2026-04-24 21:01 | 54.99549 | 12.37120 | 12777 ft | 385 kts | 27° |
| 2026-04-24 21:01 | 55.01757 | 12.39689 | 12084 ft | 382 kts | 28° |
| 2026-04-24 21:01 | 55.03953 | 12.42283 | 11459 ft | 377 kts | 29° |
| 2026-04-24 21:02 | 55.06074 | 12.44797 | 11081 ft | 366 kts | 29° |
| 2026-04-24 21:02 | 55.08145 | 12.47252 | 10885 ft | 349 kts | 28° |
| 2026-04-24 21:02 | 55.10095 | 12.49558 | 10746 ft | 329 kts | 28° |
| 2026-04-24 21:02 | 55.11924 | 12.51736 | 10605 ft | 309 kts | 28° |
| 2026-04-24 21:03 | 55.13610 | 12.53780 | 10467 ft | 292 kts | 29° |
| 2026-04-24 21:03 | 55.15238 | 12.55757 | 10339 ft | 278 kts | 27° |
| 2026-04-24 21:03 | 55.16848 | 12.57544 | 10204 ft | 267 kts | 26° |
| 2026-04-24 21:03 | 55.18371 | 12.59260 | 10025 ft | 260 kts | 26° |
| 2026-04-24 21:04 | 55.19855 | 12.61008 | 9696 ft | 259 kts | 27° |
| 2026-04-24 21:04 | 55.21359 | 12.62730 | 9359 ft | 257 kts | 26° |
| 2026-04-24 21:04 | 55.22826 | 12.64475 | 9036 ft | 256 kts | 27° |
| 2026-04-24 21:04 | 55.24345 | 12.66117 | 8966 ft | 259 kts | 24° |
| 2026-04-24 21:05 | 55.25940 | 12.67627 | 8955 ft | 262 kts | 22° |
| 2026-04-24 21:05 | 55.27529 | 12.69081 | 8781 ft | 257 kts | 23° |
| 2026-04-24 21:05 | 55.29079 | 12.70606 | 8481 ft | 254 kts | 23° |
| 2026-04-24 21:05 | 55.30625 | 12.72041 | 8156 ft | 252 kts | 23° |
| 2026-04-24 21:06 | 55.32156 | 12.73547 | 7837 ft | 250 kts | 22° |
| 2026-04-24 21:06 | 55.33748 | 12.74611 | 7489 ft | 242 kts | 5° |
| 2026-04-24 21:06 | 55.35358 | 12.74384 | 7208 ft | 230 kts | 339° |
| 2026-04-24 21:06 | 55.36741 | 12.73061 | 6885 ft | 227 kts | 323° |
| 2026-04-24 21:07 | 55.37939 | 12.71261 | 6584 ft | 224 kts | 313° |
| 2026-04-24 21:07 | 55.38914 | 12.69164 | 6298 ft | 226 kts | 307° |
| 2026-04-24 21:07 | 55.39867 | 12.66872 | 5967 ft | 238 kts | 308° |
| 2026-04-24 21:07 | 55.40872 | 12.64518 | 5639 ft | 239 kts | 308° |
| 2026-04-24 21:08 | 55.41823 | 12.62130 | 5322 ft | 239 kts | 302° |
| 2026-04-24 21:08 | 55.42392 | 12.59434 | 5004 ft | 238 kts | 277° |
| 2026-04-24 21:08 | 55.42120 | 12.56597 | 4696 ft | 241 kts | 249° |
| 2026-04-24 21:08 | 55.41179 | 12.54147 | 4395 ft | 243 kts | 231° |
| 2026-04-24 21:09 | 55.39988 | 12.52094 | 4129 ft | 240 kts | 226° |
| 2026-04-24 21:09 | 55.38736 | 12.50206 | 4041 ft | 230 kts | 224° |
| 2026-04-24 21:09 | 55.37559 | 12.48437 | 3982 ft | 219 kts | 226° |
| 2026-04-24 21:09 | 55.36417 | 12.46652 | 3843 ft | 219 kts | 226° |
| 2026-04-24 21:10 | 55.35302 | 12.44805 | 3392 ft | 225 kts | 231° |
| 2026-04-24 21:10 | 55.34592 | 12.42469 | 3068 ft | 218 kts | 264° |
| 2026-04-24 21:10 | 55.34858 | 12.39924 | 2736 ft | 213 kts | 303° |
| 2026-04-24 21:10 | 55.35938 | 12.38210 | 2509 ft | 211 kts | 326° |
| 2026-04-24 21:11 | 55.37278 | 12.37200 | 2464 ft | 215 kts | 348° |
| 2026-04-24 21:11 | 55.38782 | 12.37374 | 2477 ft | 222 kts | 13° |
| 2026-04-24 21:11 | 55.40279 | 12.38299 | 2478 ft | 224 kts | 15° |
| 2026-04-24 21:11 | 55.41763 | 12.39069 | 2474 ft | 223 kts | 11° |
| 2026-04-24 21:12 | 55.43261 | 12.39693 | 2473 ft | 224 kts | 9° |
| 2026-04-24 21:12 | 55.44761 | 12.40282 | 2468 ft | 211 kts | 10° |
| 2026-04-24 21:12 | 55.46132 | 12.40866 | 2470 ft | 196 kts | 11° |
| 2026-04-24 21:12 | 55.47384 | 12.41761 | 2472 ft | 196 kts | 31° |
| 2026-04-24 21:13 | 55.48364 | 12.43412 | 2475 ft | 199 kts | 44° |
| 2026-04-24 21:13 | 55.49343 | 12.45124 | 2465 ft | 194 kts | 39° |
| 2026-04-24 21:13 | 55.50312 | 12.46641 | 2390 ft | 182 kts | 38° |
| 2026-04-24 21:13 | 55.51249 | 12.48105 | 2163 ft | 179 kts | 37° |
| 2026-04-24 21:14 | 55.52187 | 12.49554 | 1906 ft | 178 kts | 37° |
| 2026-04-24 21:14 | 55.53103 | 12.50969 | 1656 ft | 175 kts | 37° |
| 2026-04-24 21:14 | 55.53995 | 12.52340 | 1412 ft | 166 kts | 37° |
| 2026-04-24 21:14 | 55.54841 | 12.53641 | 1192 ft | 157 kts | 38° |
| 2026-04-24 21:15 | 55.55638 | 12.54870 | 1006 ft | 149 kts | 37° |
| 2026-04-24 21:15 | 55.56422 | 12.56071 | 784 ft | 147 kts | 38° |
| 2026-04-24 21:15 | 55.57157 | 12.57254 | 709 ft | 142 kts | 40° |
| 2026-04-24 21:15 | 55.57915 | 12.58384 | 477 ft | 144 kts | 37° |
| 2026-04-24 21:16 | 55.58682 | 12.59537 | 228 ft | 145 kts | 39° |
| 2026-04-24 21:16 | 55.59432 | 12.60687 | 16 ft | 138 kts | 39° |
| 2026-04-24 21:16 | 55.60002 | 12.61557 | 12 ft | 76 kts | 43° |
| 2026-04-24 21:16 | 55.60273 | 12.61979 | 13 ft | 37 kts | 41° |
| 2026-04-24 21:17 | 55.60451 | 12.62233 | 15 ft | 25 kts | 31° |
| 2026-04-24 21:17 | 55.60613 | 12.62332 | 15 ft | 24 kts | 12° |
| 2026-04-24 21:17 | 55.60770 | 12.62397 | 17 ft | 22 kts | 22° |
| 2026-04-24 21:17 | 55.60887 | 12.62550 | 19 ft | 20 kts | 41° |
| 2026-04-24 21:18 | 55.60987 | 12.62702 | 21 ft | 18 kts | 42° |
| 2026-04-24 21:18 | 55.61075 | 12.62841 | 23 ft | 16 kts | 41° |
| 2026-04-24 21:18 | 55.61162 | 12.62975 | 22 ft | 16 kts | 41° |
| 2026-04-24 21:18 | 55.61260 | 12.63125 | 20 ft | 20 kts | 40° |
| 2026-04-24 21:19 | 55.61366 | 12.63286 | 21 ft | 19 kts | 41° |
| 2026-04-24 21:19 | 55.61464 | 12.63442 | 21 ft | 18 kts | 43° |
| 2026-04-24 21:19 | 55.61557 | 12.63592 | 22 ft | 17 kts | 41° |
| 2026-04-24 21:19 | 55.61643 | 12.63722 | 24 ft | 15 kts | 41° |
| 2026-04-24 21:20 | 55.61823 | 12.64002 | 21 ft | 17 kts | 41° |
| 2026-04-24 21:20 | 55.61926 | 12.64116 | 18 ft | 18 kts | 24° |
| 2026-04-24 21:20 | 55.62041 | 12.64208 | 16 ft | 18 kts | 26° |
| 2026-04-24 21:21 | 55.62159 | 12.64312 | 15 ft | 18 kts | 26° |
| 2026-04-24 21:21 | 55.62277 | 12.64396 | 15 ft | 18 kts | 15° |
| 2026-04-24 21:21 | 55.62394 | 12.64452 | 15 ft | 17 kts | 15° |
| 2026-04-24 21:21 | 55.62497 | 12.64461 | 17 ft | 14 kts | 320° |
| 2026-04-24 21:22 | 55.62554 | 12.64312 | 16 ft | 14 kts | 304° |
| 2026-04-24 21:22 | 55.62635 | 12.64292 | 17 ft | 12 kts | 24° |
| 2026-04-24 21:22 | 55.62679 | 12.64374 | 18 ft | 5 kts | 98° |
| 2026-04-24 21:22 | 55.62672 | 12.64430 | 18 ft | 4 kts | 102° |
| 2026-04-24 21:23 | 55.62672 | 12.64434 | 18 ft | 0 kts | 102° |